Terminal Aerodrome Forecast
Issued by NWS Norman, OK

Home | Current Version | Previous Version | Text Only | Print | Product List | Glossary On
Versions: 1 2 3 4 5 6 7 8 9 10 11 12 13 14 15 16 17 18 19
000
FTUS44 KOUN 181530 AAA
TAFOKC
TAF AMD
KOKC 181530Z 1816/1912 17005KT 1/4SM FG VV002
     FM181700 18008KT 1SM BR OVC004
     FM181830 18010KT P6SM OVC009
     FM182000 18010KT P6SM SCT010
     FM190400 17007KT 1SM BR OVC005=

USA.gov is the U.S. government's official web portal to all federal, state and local government web resources and services.